createdAt,value
2019-04-30T00:01:25.268Z,53.62
2019-04-30T00:04:02.406Z,53.59
2019-04-30T00:06:39.330Z,53.98
2019-04-30T00:09:15.224Z,54.15
2019-04-30T00:11:50.744Z,54.33
2019-04-30T00:14:21.429Z,54.39
2019-04-30T00:16:55.089Z,54.67
2019-04-30T00:19:27.697Z,54.78
2019-04-30T00:22:00.689Z,54.60
2019-04-30T00:24:35.356Z,54.70
2019-04-30T00:27:07.901Z,54.75
2019-04-30T00:29:40.464Z,55.03
2019-04-30T00:32:13.300Z,54.75
2019-04-30T00:34:46.009Z,55.12
2019-04-30T00:37:19.058Z,55.26
2019-04-30T00:39:53.088Z,55.19
2019-04-30T00:42:28.677Z,55.29
2019-04-30T00:45:06.659Z,55.60
2019-04-30T00:47:35.196Z,55.68
2019-04-30T00:50:09.260Z,55.75
2019-04-30T00:52:41.775Z,56.21
2019-04-30T00:55:15.041Z,55.90
2019-04-30T00:57:47.920Z,56.55
2019-04-30T01:00:25.936Z,56.46
2019-04-30T01:03:00.856Z,56.65
2019-04-30T01:05:32.115Z,56.67
2019-04-30T01:08:07.133Z,56.89
2019-04-30T01:10:39.725Z,56.69
2019-04-30T01:13:12.345Z,57.04
2019-04-30T01:15:49.023Z,57.25
2019-04-30T01:18:19.403Z,57.16
2019-04-30T01:20:52.090Z,57.39
2019-04-30T01:23:24.915Z,57.27
2019-04-30T01:25:58.571Z,57.65
2019-04-30T01:28:31.726Z,57.52
2019-04-30T01:31:04.110Z,57.63
2019-04-30T01:33:38.892Z,57.81
2019-04-30T01:36:13.317Z,57.93
2019-04-30T01:38:49.041Z,57.97
2019-04-30T01:41:27.058Z,58.19
2019-04-30T01:43:53.987Z,58.23
2019-04-30T01:46:26.540Z,58.26
2019-04-30T01:48:59.485Z,58.41
2019-04-30T01:51:32.210Z,58.19
2019-04-30T01:54:04.714Z,58.35
2019-04-30T01:56:44.936Z,58.52
2019-04-30T01:59:19.560Z,58.46
2019-04-30T02:01:52.850Z,58.73
2019-04-30T02:04:25.595Z,58.70
2019-04-30T02:06:59.204Z,58.68
2019-04-30T02:09:32.020Z,58.80
2019-04-30T02:12:04.790Z,58.92
2019-04-30T02:14:37.325Z,58.90
2019-04-30T02:17:10.385Z,59.20
2019-04-30T02:19:54.167Z,59.34
2019-04-30T02:22:18.841Z,59.20
2019-04-30T02:24:51.880Z,59.72
2019-04-30T02:27:24.570Z,59.46
2019-04-30T02:29:57.090Z,59.52
2019-04-30T02:32:30.687Z,59.55
2019-04-30T02:35:04.854Z,60.21
2019-04-30T02:37:40.413Z,60.38
2019-04-30T02:40:13.325Z,59.80
2019-04-30T02:42:46.086Z,60.49
2019-04-30T02:45:19.887Z,60.37
2019-04-30T02:47:52.751Z,60.52
2019-04-30T02:50:29.232Z,60.62
2019-04-30T02:53:03.821Z,60.56
2019-04-30T02:55:46.274Z,60.94
2019-04-30T02:58:20.983Z,61.35
2019-04-30T03:00:53.347Z,61.31
2019-04-30T03:03:26.335Z,61.31
2019-04-30T03:05:59.623Z,61.28
2019-04-30T03:08:32.456Z,61.39
2019-04-30T03:11:05.621Z,62.02
2019-04-30T03:13:42.511Z,61.67
2019-04-30T03:16:14.348Z,61.36
2019-04-30T03:18:50.005Z,62.48
2019-04-30T03:21:40.820Z,65.10
2019-04-30T03:24:14.410Z,61.12
2019-04-30T03:26:49.683Z,56.14
2019-04-30T03:29:23.868Z,51.18
2019-04-30T03:31:56.002Z,50.94
2019-04-30T03:34:32.805Z,50.49
2019-04-30T03:37:02.868Z,50.91
2019-04-30T03:39:35.602Z,51.36
2019-04-30T03:42:09.971Z,52.00
2019-04-30T03:44:42.886Z,52.63
2019-04-30T03:47:15.785Z,53.01
2019-04-30T03:49:49.884Z,53.72
2019-04-30T03:52:23.865Z,54.03
2019-04-30T03:55:02.456Z,54.73
2019-04-30T03:57:30.857Z,55.31
2019-04-30T04:00:03.790Z,55.66
2019-04-30T04:02:40.454Z,56.64
2019-04-30T04:05:13.440Z,56.66
2019-04-30T04:07:53.150Z,57.27
2019-04-30T04:10:29.745Z,57.82
2019-04-30T04:13:02.695Z,57.60
2019-04-30T04:15:36.761Z,57.92
2019-04-30T04:18:10.754Z,57.92
2019-04-30T04:20:43.569Z,58.03
2019-04-30T04:23:16.337Z,57.97
2019-04-30T04:25:49.855Z,57.66
2019-04-30T04:28:22.657Z,57.90
2019-04-30T04:30:55.305Z,57.60
2019-04-30T04:33:29.642Z,57.45
2019-04-30T04:36:02.561Z,57.40
2019-04-30T04:38:35.250Z,57.66
2019-04-30T04:41:10.363Z,57.85
2019-04-30T04:43:42.161Z,57.77
2019-04-30T04:46:14.716Z,58.06
2019-04-30T04:48:49.427Z,57.97
2019-04-30T04:51:34.370Z,58.24
2019-04-30T04:53:56.217Z,58.31
2019-04-30T04:56:30.477Z,58.39
2019-04-30T04:59:03.145Z,58.26
2019-04-30T05:01:35.941Z,58.05
2019-04-30T05:04:09.262Z,58.06
2019-04-30T05:06:43.082Z,57.86
2019-04-30T05:09:16.030Z,57.36
2019-04-30T05:11:48.850Z,56.88
2019-04-30T05:14:21.647Z,56.29
2019-04-30T05:16:55.400Z,55.10
2019-04-30T05:19:28.631Z,54.13
2019-04-30T05:22:01.265Z,52.59
2019-04-30T05:24:34.140Z,52.26
2019-04-30T05:27:06.671Z,51.50
2019-04-30T05:29:39.420Z,50.97
2019-04-30T05:32:12.180Z,49.34
2019-04-30T05:34:44.840Z,50.06
2019-04-30T05:37:18.708Z,49.60
2019-04-30T05:39:51.525Z,49.49
2019-04-30T05:42:24.161Z,49.26
2019-04-30T05:44:56.800Z,49.40
2019-04-30T05:47:29.592Z,48.66
2019-04-30T05:50:02.470Z,48.14
2019-04-30T05:52:35.325Z,48.68
2019-04-30T05:55:08.538Z,48.84
2019-04-30T05:57:53.100Z,49.25
2019-04-30T06:00:16.325Z,49.20
2019-04-30T06:02:49.720Z,49.03
2019-04-30T06:05:22.730Z,49.38
2019-04-30T06:07:55.566Z,49.32
2019-04-30T06:10:36.975Z,49.29
2019-04-30T06:13:14.245Z,49.20
2019-04-30T06:15:49.061Z,49.58
2019-04-30T06:18:22.061Z,49.76
2019-04-30T06:20:54.765Z,50.05
2019-04-30T06:23:29.303Z,49.89
2019-04-30T06:26:09.911Z,49.72
2019-04-30T06:28:39.036Z,50.00
2019-04-30T06:31:11.536Z,50.45
2019-04-30T06:33:45.105Z,50.35
2019-04-30T06:36:19.092Z,50.18
2019-04-30T06:38:51.845Z,50.56
2019-04-30T06:41:24.710Z,50.54
2019-04-30T06:43:58.762Z,50.31
2019-04-30T06:46:31.870Z,49.70
2019-04-30T06:49:05.135Z,50.26
2019-04-30T06:51:38.917Z,49.32
2019-04-30T06:54:11.600Z,50.44
2019-04-30T06:56:44.190Z,49.29
2019-04-30T06:59:16.784Z,49.98
2019-04-30T07:01:49.665Z,49.85
2019-04-30T07:04:22.641Z,49.92
2019-04-30T07:06:55.965Z,49.69
2019-04-30T07:09:31.618Z,49.61
2019-04-30T07:12:27.062Z,49.48
2019-04-30T07:14:52.850Z,49.17
2019-04-30T07:17:25.535Z,48.56
2019-04-30T07:19:59.738Z,49.53
2019-04-30T07:22:39.687Z,48.70
2019-04-30T07:25:09.587Z,48.23
2019-04-30T07:27:42.361Z,47.90
2019-04-30T07:30:15.061Z,47.56
2019-04-30T07:32:48.840Z,48.09
2019-04-30T07:35:21.220Z,47.48
2019-04-30T07:37:54.566Z,45.98
2019-04-30T07:40:29.229Z,46.51
2019-04-30T07:43:01.800Z,44.70
2019-04-30T07:45:35.525Z,46.99
2019-04-30T07:48:09.337Z,44.88
2019-04-30T07:50:42.689Z,45.20
2019-04-30T07:53:15.185Z,46.09
2019-04-30T07:55:49.445Z,44.90
2019-04-30T07:58:23.092Z,44.26
2019-04-30T08:00:59.228Z,45.33
2019-04-30T08:03:35.854Z,44.95
2019-04-30T08:06:10.076Z,44.01
2019-04-30T08:08:43.535Z,44.43
2019-04-30T08:11:25.340Z,43.45
2019-04-30T08:13:50.826Z,42.59
2019-04-30T08:16:23.755Z,43.11
2019-04-30T08:18:59.177Z,43.05
2019-04-30T08:21:31.824Z,44.16
2019-04-30T08:24:04.445Z,41.46
2019-04-30T08:26:39.766Z,40.78
2019-04-30T08:29:15.224Z,40.24
2019-04-30T08:31:49.226Z,41.31
2019-04-30T08:34:21.765Z,40.37
2019-04-30T08:36:54.883Z,41.13
2019-04-30T08:39:29.438Z,40.55
2019-04-30T08:42:02.015Z,40.52
2019-04-30T08:44:35.805Z,40.87
2019-04-30T08:47:08.732Z,41.09
2019-04-30T08:49:41.556Z,41.16
2019-04-30T08:52:14.445Z,40.57
2019-04-30T08:54:46.765Z,40.25
2019-04-30T08:57:19.489Z,40.63
2019-04-30T08:59:53.146Z,41.50
2019-04-30T09:02:26.236Z,41.82
2019-04-30T09:05:00.477Z,41.25
2019-04-30T09:07:33.155Z,40.52
2019-04-30T09:10:06.606Z,38.84
2019-04-30T09:12:39.970Z,39.93
2019-04-30T09:15:12.676Z,40.07
2019-04-30T09:17:58.886Z,39.66
2019-04-30T09:20:21.035Z,38.39
2019-04-30T09:22:53.554Z,38.67
2019-04-30T09:25:25.949Z,37.97
2019-04-30T09:27:58.983Z,37.06
2019-04-30T09:30:31.405Z,38.05
2019-04-30T09:33:03.870Z,37.74
2019-04-30T09:35:37.340Z,36.55
2019-04-30T09:38:09.937Z,36.28
2019-04-30T09:40:42.275Z,36.42
2019-04-30T09:43:14.795Z,35.69
2019-04-30T09:45:49.568Z,35.76
2019-04-30T09:48:21.755Z,35.38
2019-04-30T09:50:54.674Z,35.56
2019-04-30T09:53:27.015Z,35.04
2019-04-30T09:55:59.748Z,35.23
2019-04-30T09:58:32.275Z,34.82
2019-04-30T10:01:05.955Z,34.85
2019-04-30T10:03:39.205Z,34.19
2019-04-30T10:06:12.515Z,34.51
2019-04-30T10:08:48.504Z,34.46
2019-04-30T10:11:33.855Z,34.34
2019-04-30T10:14:06.335Z,34.37
2019-04-30T10:16:40.218Z,34.48
2019-04-30T10:19:14.906Z,32.85
2019-04-30T10:21:51.279Z,33.67
2019-04-30T10:24:23.578Z,33.75
2019-04-30T10:26:55.895Z,33.48
2019-04-30T10:29:29.805Z,33.97
2019-04-30T10:32:02.336Z,33.35
2019-04-30T10:34:34.794Z,33.44
2019-04-30T10:37:08.993Z,33.55
2019-04-30T10:39:41.778Z,33.47
2019-04-30T10:42:14.164Z,32.81
2019-04-30T10:44:46.715Z,33.39
2019-04-30T10:47:19.539Z,32.86
2019-04-30T10:49:51.995Z,32.59
2019-04-30T10:52:24.555Z,32.76
2019-04-30T10:54:56.854Z,32.69
2019-04-30T10:57:29.163Z,32.52
2019-04-30T11:00:01.735Z,32.71
2019-04-30T11:02:35.605Z,32.43
2019-04-30T11:05:09.746Z,32.16
2019-04-30T11:07:42.002Z,31.11
2019-04-30T11:10:15.335Z,32.29
2019-04-30T11:12:47.635Z,31.81
2019-04-30T11:15:21.145Z,31.36
2019-04-30T11:17:53.708Z,31.94
2019-04-30T11:20:26.385Z,30.91
2019-04-30T11:22:58.882Z,31.73
2019-04-30T11:25:32.067Z,31.04
2019-04-30T11:28:06.352Z,31.46
2019-04-30T11:30:39.668Z,30.49
2019-04-30T11:33:12.373Z,29.94
2019-04-30T11:35:44.856Z,31.39
2019-04-30T11:38:20.369Z,30.90
2019-04-30T11:40:51.305Z,30.70
2019-04-30T11:43:23.445Z,30.44
2019-04-30T11:46:00.376Z,29.96
2019-04-30T11:48:32.735Z,30.19
2019-04-30T11:51:05.215Z,29.76
2019-04-30T11:53:38.988Z,29.89
2019-04-30T11:56:11.587Z,30.32
2019-04-30T11:58:43.858Z,29.69
2019-04-30T12:01:19.474Z,29.45
2019-04-30T12:03:52.215Z,29.61
2019-04-30T12:06:24.676Z,29.63
2019-04-30T12:09:00.218Z,29.46
2019-04-30T12:11:35.795Z,29.96
2019-04-30T12:14:08.415Z,29.45
2019-04-30T12:16:41.935Z,29.30
2019-04-30T12:19:15.995Z,28.73
2019-04-30T12:21:49.295Z,29.94
2019-04-30T12:24:21.775Z,28.48
2019-04-30T12:26:54.388Z,29.65
2019-04-30T12:29:28.951Z,28.86
2019-04-30T12:32:00.882Z,28.90
2019-04-30T12:34:33.742Z,28.73
2019-04-30T12:37:06.440Z,28.37
2019-04-30T12:39:39.487Z,28.96
2019-04-30T12:42:12.144Z,28.54
2019-04-30T12:44:44.661Z,28.76
2019-04-30T12:47:19.413Z,28.61
2019-04-30T12:49:52.499Z,28.24
2019-04-30T12:52:30.500Z,27.28
2019-04-30T12:55:14.949Z,27.34
2019-04-30T12:57:42.730Z,27.28
2019-04-30T13:00:16.901Z,27.79
2019-04-30T13:02:49.180Z,28.08
2019-04-30T13:05:21.661Z,27.97
2019-04-30T13:07:54.499Z,27.12
2019-04-30T13:10:28.052Z,27.22
2019-04-30T13:13:01.211Z,28.12
2019-04-30T13:15:34.040Z,28.15
2019-04-30T13:18:06.799Z,27.94
2019-04-30T13:20:39.207Z,28.02
2019-04-30T13:23:11.740Z,27.64
2019-04-30T13:25:51.211Z,27.69
2019-04-30T13:28:19.842Z,27.02
2019-04-30T13:30:52.251Z,26.96
2019-04-30T13:33:30.160Z,27.34
2019-04-30T13:36:02.760Z,27.19
2019-04-30T13:38:47.603Z,26.94
2019-04-30T13:41:18.747Z,27.67
2019-04-30T13:43:53.910Z,27.59
2019-04-30T13:46:28.359Z,28.34
2019-04-30T13:49:00.735Z,27.54
2019-04-30T13:51:33.255Z,27.41
2019-04-30T13:54:06.695Z,26.90
2019-04-30T13:56:39.744Z,27.17
2019-04-30T13:59:12.095Z,26.60
2019-04-30T14:01:44.575Z,26.82
2019-04-30T14:04:21.667Z,26.20
2019-04-30T14:07:09.257Z,26.84
2019-04-30T14:09:41.655Z,27.07
2019-04-30T14:12:14.455Z,26.68
2019-04-30T14:14:46.929Z,26.34
2019-04-30T14:17:19.735Z,26.12
2019-04-30T14:19:52.235Z,26.47
2019-04-30T14:22:24.715Z,27.89
2019-04-30T14:24:57.205Z,27.01
2019-04-30T14:27:29.985Z,26.04
2019-04-30T14:30:02.545Z,26.27
2019-04-30T14:32:35.205Z,26.08
2019-04-30T14:35:09.139Z,25.85
2019-04-30T14:37:41.886Z,26.24
2019-04-30T14:40:19.262Z,26.45
2019-04-30T14:42:53.034Z,26.07
2019-04-30T14:45:30.817Z,26.44
2019-04-30T14:48:05.903Z,25.91
2019-04-30T14:50:39.365Z,26.32
2019-04-30T14:53:13.567Z,25.64
2019-04-30T14:56:11.275Z,26.33
2019-04-30T14:58:43.966Z,25.85
2019-04-30T15:01:19.390Z,25.71
2019-04-30T15:03:53.266Z,26.14
2019-04-30T15:06:25.745Z,26.00
2019-04-30T15:08:59.153Z,25.04
2019-04-30T15:11:31.625Z,25.44
2019-04-30T15:14:04.486Z,25.40
2019-04-30T15:16:38.026Z,26.49
2019-04-30T15:19:10.405Z,26.39
2019-04-30T15:21:42.885Z,26.20
2019-04-30T15:24:19.160Z,26.25
2019-04-30T15:26:57.911Z,26.19
2019-04-30T15:29:29.011Z,25.93
2019-04-30T15:32:01.427Z,26.24
2019-04-30T15:34:34.381Z,26.48
2019-04-30T15:37:18.760Z,26.27
2019-04-30T15:39:42.128Z,26.08
2019-04-30T15:42:15.750Z,25.46
2019-04-30T15:44:49.675Z,25.61
2019-04-30T15:47:23.680Z,25.33
2019-04-30T15:49:56.520Z,25.59
2019-04-30T15:52:29.389Z,26.00
2019-04-30T15:55:01.695Z,25.62
2019-04-30T15:57:34.310Z,26.11
2019-04-30T16:00:09.120Z,25.80
2019-04-30T16:02:56.244Z,26.37
2019-04-30T16:05:22.570Z,26.92
2019-04-30T16:07:58.317Z,27.23
2019-04-30T16:10:30.960Z,25.68
2019-04-30T16:13:14.020Z,25.90
2019-04-30T16:15:49.093Z,25.61
2019-04-30T16:18:21.546Z,26.18
2019-04-30T16:20:54.221Z,26.24
2019-04-30T16:23:26.920Z,26.24
2019-04-30T16:25:59.826Z,25.82
2019-04-30T16:28:32.830Z,25.93
2019-04-30T16:31:05.820Z,26.26
2019-04-30T16:33:39.373Z,26.34
2019-04-30T16:36:12.295Z,26.90
2019-04-30T16:38:45.060Z,26.66
2019-04-30T16:41:30.761Z,26.17
2019-04-30T16:43:52.260Z,26.73
2019-04-30T16:46:24.776Z,26.55
2019-04-30T16:48:58.652Z,27.78
2019-04-30T16:51:32.910Z,26.62
2019-04-30T16:54:05.631Z,26.94
2019-04-30T16:56:38.798Z,26.91
2019-04-30T16:59:13.217Z,27.06
2019-04-30T17:01:56.845Z,27.06
2019-04-30T17:04:20.721Z,27.15
2019-04-30T17:06:55.146Z,27.54
2019-04-30T17:09:27.690Z,27.50
2019-04-30T17:12:14.340Z,27.97
2019-04-30T17:14:49.249Z,28.37
2019-04-30T17:17:22.047Z,28.17
2019-04-30T17:19:54.816Z,28.50
2019-04-30T17:22:27.172Z,28.10
2019-04-30T17:24:59.701Z,28.64
2019-04-30T17:27:32.250Z,28.99
2019-04-30T17:30:09.073Z,29.46
2019-04-30T17:32:42.745Z,29.91
2019-04-30T17:35:16.140Z,29.61
2019-04-30T17:37:48.969Z,29.81
2019-04-30T17:40:22.365Z,30.31
2019-04-30T17:42:55.042Z,30.58
2019-04-30T17:45:29.279Z,31.05
2019-04-30T17:48:02.045Z,31.16
2019-04-30T17:50:34.800Z,31.60
2019-04-30T17:53:09.060Z,31.36
2019-04-30T17:55:41.892Z,32.13
2019-04-30T17:58:20.438Z,32.41
2019-04-30T18:00:53.830Z,32.20
2019-04-30T18:03:28.853Z,33.18
2019-04-30T18:06:01.340Z,32.68
2019-04-30T18:08:33.840Z,33.36
2019-04-30T18:11:06.430Z,33.19
2019-04-30T18:13:40.610Z,33.45
2019-04-30T18:16:13.200Z,32.83
2019-04-30T18:18:51.224Z,32.85
2019-04-30T18:21:31.530Z,33.20
2019-04-30T18:24:21.995Z,33.19
2019-04-30T18:26:59.385Z,32.79
2019-04-30T18:29:32.260Z,33.36
2019-04-30T18:32:04.965Z,33.42
2019-04-30T18:34:39.093Z,33.62
2019-04-30T18:37:12.290Z,33.49
2019-04-30T18:39:45.100Z,34.35
2019-04-30T18:42:19.366Z,34.57
2019-04-30T18:44:52.582Z,34.28
2019-04-30T18:47:26.045Z,34.71
2019-04-30T18:49:59.441Z,34.94
2019-04-30T18:52:32.502Z,34.75
2019-04-30T18:55:06.822Z,34.98
2019-04-30T18:57:39.850Z,35.81
2019-04-30T19:00:15.155Z,36.85
2019-04-30T19:02:48.574Z,35.75
2019-04-30T19:05:26.220Z,35.51
2019-04-30T19:08:00.655Z,36.12
2019-04-30T19:10:47.332Z,36.73
2019-04-30T19:13:33.185Z,36.49
2019-04-30T19:16:25.697Z,36.65
2019-04-30T19:19:03.075Z,38.06
2019-04-30T19:21:36.320Z,37.37
2019-04-30T19:24:08.990Z,37.80
2019-04-30T19:26:41.590Z,38.79
2019-04-30T19:29:14.490Z,37.38
2019-04-30T19:31:49.340Z,39.56
2019-04-30T19:34:21.665Z,39.74
2019-04-30T19:36:54.276Z,40.90
2019-04-30T19:39:27.020Z,39.85
2019-04-30T19:42:01.034Z,37.95
2019-04-30T19:44:33.541Z,39.67
2019-04-30T19:47:09.186Z,40.72
2019-04-30T19:49:41.660Z,41.03
2019-04-30T19:52:14.597Z,40.33
2019-04-30T19:54:48.783Z,41.48
2019-04-30T19:57:21.457Z,42.17
2019-04-30T19:59:54.175Z,41.25
2019-04-30T20:02:29.357Z,41.72
2019-04-30T20:05:01.760Z,41.77
2019-04-30T20:07:35.515Z,42.63
2019-04-30T20:10:09.860Z,43.03
2019-04-30T20:12:42.830Z,43.15
2019-04-30T20:15:19.474Z,44.24
2019-04-30T20:17:50.665Z,44.17
2019-04-30T20:20:23.405Z,44.41
2019-04-30T20:22:56.171Z,44.58
2019-04-30T20:25:28.722Z,41.38
2019-04-30T20:28:01.266Z,41.32
2019-04-30T20:30:33.955Z,42.05
2019-04-30T20:33:06.699Z,44.83
2019-04-30T20:35:41.157Z,42.45
2019-04-30T20:38:28.525Z,43.57
2019-04-30T20:41:03.237Z,44.19
2019-04-30T20:43:35.941Z,44.40
2019-04-30T20:46:08.886Z,44.13
2019-04-30T20:48:41.590Z,43.72
2019-04-30T20:51:14.605Z,43.07
2019-04-30T20:53:49.155Z,42.90
2019-04-30T20:56:22.470Z,43.16
2019-04-30T20:58:58.618Z,42.76
2019-04-30T21:01:30.165Z,43.46
2019-04-30T21:04:03.104Z,43.28
2019-04-30T21:06:35.895Z,44.21
2019-04-30T21:09:08.665Z,44.24
2019-04-30T21:11:44.965Z,44.52
2019-04-30T21:14:16.685Z,44.14
2019-04-30T21:16:49.379Z,44.33
2019-04-30T21:19:22.084Z,44.43
2019-04-30T21:21:55.059Z,44.56
2019-04-30T21:24:27.494Z,44.87
2019-04-30T21:27:00.344Z,45.53
2019-04-30T21:29:32.839Z,45.08
2019-04-30T21:32:07.217Z,45.12
2019-04-30T21:34:44.321Z,44.99
2019-04-30T21:37:16.996Z,45.18
2019-04-30T21:39:50.210Z,45.74
2019-04-30T21:42:22.919Z,45.21
2019-04-30T21:44:56.740Z,46.08
2019-04-30T21:47:31.020Z,46.48
2019-04-30T21:50:04.729Z,47.13
2019-04-30T21:52:38.339Z,45.89
2019-04-30T21:55:12.509Z,46.79
2019-04-30T21:57:45.125Z,46.36
2019-04-30T22:00:39.620Z,46.51
2019-04-30T22:03:13.754Z,47.27
2019-04-30T22:05:46.575Z,46.76
2019-04-30T22:08:19.209Z,47.34
2019-04-30T22:10:51.954Z,47.10
2019-04-30T22:13:24.764Z,47.29
2019-04-30T22:15:57.334Z,47.99
2019-04-30T22:18:30.331Z,49.04
2019-04-30T22:21:02.981Z,48.56
2019-04-30T22:23:35.639Z,48.38
2019-04-30T22:26:08.474Z,48.44
2019-04-30T22:28:41.263Z,47.98
2019-04-30T22:31:14.329Z,49.68
2019-04-30T22:33:48.966Z,48.42
2019-04-30T22:36:31.860Z,48.35
2019-04-30T22:39:12.041Z,49.33
2019-04-30T22:41:44.327Z,49.10
2019-04-30T22:44:17.994Z,48.91
2019-04-30T22:46:50.569Z,49.16
2019-04-30T22:49:23.299Z,48.86
2019-04-30T22:51:55.825Z,49.41
2019-04-30T22:54:28.720Z,49.06
2019-04-30T22:57:01.074Z,49.91
2019-04-30T22:59:33.585Z,50.00
2019-04-30T23:02:26.320Z,50.43
2019-04-30T23:05:00.921Z,49.46
2019-04-30T23:07:33.870Z,50.49
2019-04-30T23:10:08.133Z,50.61
2019-04-30T23:12:42.020Z,50.61
2019-04-30T23:15:16.422Z,49.99
2019-04-30T23:17:49.261Z,50.34
2019-04-30T23:20:21.828Z,50.67
2019-04-30T23:22:55.522Z,50.57
2019-04-30T23:25:28.010Z,49.99
2019-04-30T23:28:00.999Z,50.93
2019-04-30T23:30:33.715Z,51.45
2019-04-30T23:33:06.544Z,50.77
2019-04-30T23:35:40.676Z,51.07
2019-04-30T23:38:13.570Z,51.49
2019-04-30T23:40:53.326Z,51.76
2019-04-30T23:43:25.974Z,51.79
2019-04-30T23:45:58.655Z,52.00
2019-04-30T23:48:32.260Z,51.30
2019-04-30T23:51:05.485Z,51.74
2019-04-30T23:53:38.435Z,52.40
2019-04-30T23:56:11.059Z,51.85
2019-04-30T23:58:43.985Z,52.54
